sensor_id;sensor_type;location;lat;lon;timestamp;P1;durP1;ratioP1;P2;durP2;ratioP2
48215;SDS011;34005;48.844;10.098;2023-06-22T00:00:26;12.35;;;7.50;;
48215;SDS011;34005;48.844;10.098;2023-06-22T00:02:55;13.65;;;7.53;;
48215;SDS011;34005;48.844;10.098;2023-06-22T00:05:22;10.55;;;7.45;;
48215;SDS011;34005;48.844;10.098;2023-06-22T00:07:50;8.27;;;7.25;;
48215;SDS011;34005;48.844;10.098;2023-06-22T00:10:18;7.88;;;7.05;;
48215;SDS011;34005;48.844;10.098;2023-06-22T00:12:46;10.00;;;6.82;;
48215;SDS011;34005;48.844;10.098;2023-06-22T00:15:14;8.73;;;7.10;;
48215;SDS011;34005;48.844;10.098;2023-06-22T00:17:42;11.52;;;7.43;;
48215;SDS011;34005;48.844;10.098;2023-06-22T00:20:10;9.85;;;6.45;;
48215;SDS011;34005;48.844;10.098;2023-06-22T00:22:38;9.13;;;7.15;;
48215;SDS011;34005;48.844;10.098;2023-06-22T00:25:06;9.02;;;7.60;;
48215;SDS011;34005;48.844;10.098;2023-06-22T00:27:34;10.75;;;6.93;;
48215;SDS011;34005;48.844;10.098;2023-06-22T00:30:04;9.52;;;7.55;;
48215;SDS011;34005;48.844;10.098;2023-06-22T00:32:32;11.07;;;6.82;;
48215;SDS011;34005;48.844;10.098;2023-06-22T00:35:00;9.32;;;6.28;;
48215;SDS011;34005;48.844;10.098;2023-06-22T00:37:27;10.10;;;6.68;;
48215;SDS011;34005;48.844;10.098;2023-06-22T00:39:55;8.45;;;6.35;;
48215;SDS011;34005;48.844;10.098;2023-06-22T00:42:23;8.55;;;6.97;;
48215;SDS011;34005;48.844;10.098;2023-06-22T00:44:50;10.38;;;7.32;;
48215;SDS011;34005;48.844;10.098;2023-06-22T00:47:19;10.73;;;7.45;;
48215;SDS011;34005;48.844;10.098;2023-06-22T00:49:47;10.18;;;7.80;;
48215;SDS011;34005;48.844;10.098;2023-06-22T00:52:17;10.43;;;7.50;;
48215;SDS011;34005;48.844;10.098;2023-06-22T00:54:47;15.98;;;8.35;;
48215;SDS011;34005;48.844;10.098;2023-06-22T00:57:15;11.88;;;8.10;;
48215;SDS011;34005;48.844;10.098;2023-06-22T00:59:44;11.57;;;8.05;;
48215;SDS011;34005;48.844;10.098;2023-06-22T01:02:12;12.35;;;7.47;;
48215;SDS011;34005;48.844;10.098;2023-06-22T01:04:41;8.85;;;6.80;;
48215;SDS011;34005;48.844;10.098;2023-06-22T01:07:10;9.00;;;7.60;;
48215;SDS011;34005;48.844;10.098;2023-06-22T01:09:49;11.25;;;7.72;;
48215;SDS011;34005;48.844;10.098;2023-06-22T01:12:31;12.52;;;8.35;;
48215;SDS011;34005;48.844;10.098;2023-06-22T01:15:07;8.90;;;7.50;;
48215;SDS011;34005;48.844;10.098;2023-06-22T01:20:09;11.35;;;7.88;;
48215;SDS011;34005;48.844;10.098;2023-06-22T01:22:43;12.05;;;8.07;;
48215;SDS011;34005;48.844;10.098;2023-06-22T01:25:26;10.23;;;7.07;;
48215;SDS011;34005;48.844;10.098;2023-06-22T01:28:05;14.55;;;7.72;;
48215;SDS011;34005;48.844;10.098;2023-06-22T01:30:46;9.70;;;8.50;;
48215;SDS011;34005;48.844;10.098;2023-06-22T01:33:16;12.70;;;8.13;;
48215;SDS011;34005;48.844;10.098;2023-06-22T01:35:44;12.07;;;8.80;;
48215;SDS011;34005;48.844;10.098;2023-06-22T01:38:12;9.20;;;7.50;;
48215;SDS011;34005;48.844;10.098;2023-06-22T01:40:40;8.85;;;7.43;;
48215;SDS011;34005;48.844;10.098;2023-06-22T01:43:08;12.48;;;7.75;;
48215;SDS011;34005;48.844;10.098;2023-06-22T01:45:36;9.65;;;6.97;;
48215;SDS011;34005;48.844;10.098;2023-06-22T01:48:05;9.77;;;7.47;;
48215;SDS011;34005;48.844;10.098;2023-06-22T01:50:34;10.32;;;6.78;;
48215;SDS011;34005;48.844;10.098;2023-06-22T01:53:01;11.15;;;6.80;;
48215;SDS011;34005;48.844;10.098;2023-06-22T01:55:29;12.02;;;6.75;;
48215;SDS011;34005;48.844;10.098;2023-06-22T01:57:56;8.35;;;7.38;;
48215;SDS011;34005;48.844;10.098;2023-06-22T02:00:24;11.05;;;7.43;;
48215;SDS011;34005;48.844;10.098;2023-06-22T02:02:56;8.68;;;7.72;;
48215;SDS011;34005;48.844;10.098;2023-06-22T02:05:28;9.93;;;7.25;;
48215;SDS011;34005;48.844;10.098;2023-06-22T02:08:02;9.48;;;7.15;;
48215;SDS011;34005;48.844;10.098;2023-06-22T02:10:34;9.35;;;6.95;;
48215;SDS011;34005;48.844;10.098;2023-06-22T02:13:05;9.70;;;6.80;;
48215;SDS011;34005;48.844;10.098;2023-06-22T02:15:35;9.48;;;7.90;;
48215;SDS011;34005;48.844;10.098;2023-06-22T02:18:04;13.10;;;8.63;;
48215;SDS011;34005;48.844;10.098;2023-06-22T02:20:34;13.40;;;7.07;;
48215;SDS011;34005;48.844;10.098;2023-06-22T02:23:04;9.75;;;7.55;;
48215;SDS011;34005;48.844;10.098;2023-06-22T02:25:32;10.32;;;8.25;;
48215;SDS011;34005;48.844;10.098;2023-06-22T02:28:00;9.18;;;7.10;;
48215;SDS011;34005;48.844;10.098;2023-06-22T02:30:28;12.63;;;8.60;;
48215;SDS011;34005;48.844;10.098;2023-06-22T02:32:57;10.38;;;8.07;;
48215;SDS011;34005;48.844;10.098;2023-06-22T02:35:26;11.30;;;8.55;;
48215;SDS011;34005;48.844;10.098;2023-06-22T02:37:59;9.55;;;8.48;;
48215;SDS011;34005;48.844;10.098;2023-06-22T02:40:28;9.95;;;8.10;;
48215;SDS011;34005;48.844;10.098;2023-06-22T02:42:57;12.25;;;8.50;;
48215;SDS011;34005;48.844;10.098;2023-06-22T02:45:28;9.05;;;7.55;;
48215;SDS011;34005;48.844;10.098;2023-06-22T02:47:56;11.50;;;8.55;;
48215;SDS011;34005;48.844;10.098;2023-06-22T02:50:24;12.13;;;10.10;;
48215;SDS011;34005;48.844;10.098;2023-06-22T02:52:52;12.88;;;10.23;;
48215;SDS011;34005;48.844;10.098;2023-06-22T02:55:21;12.55;;;9.48;;
48215;SDS011;34005;48.844;10.098;2023-06-22T02:57:49;11.90;;;9.32;;
48215;SDS011;34005;48.844;10.098;2023-06-22T03:00:18;12.50;;;8.90;;
48215;SDS011;34005;48.844;10.098;2023-06-22T03:02:48;13.55;;;9.65;;
48215;SDS011;34005;48.844;10.098;2023-06-22T03:05:16;10.25;;;8.75;;
48215;SDS011;34005;48.844;10.098;2023-06-22T03:07:44;11.93;;;9.05;;
48215;SDS011;34005;48.844;10.098;2023-06-22T03:10:13;12.10;;;9.00;;
48215;SDS011;34005;48.844;10.098;2023-06-22T03:12:43;11.27;;;8.07;;
48215;SDS011;34005;48.844;10.098;2023-06-22T03:15:11;10.23;;;8.15;;
48215;SDS011;34005;48.844;10.098;2023-06-22T03:17:40;14.68;;;10.38;;
48215;SDS011;34005;48.844;10.098;2023-06-22T03:20:08;12.73;;;9.93;;
48215;SDS011;34005;48.844;10.098;2023-06-22T03:22:38;14.38;;;10.93;;
48215;SDS011;34005;48.844;10.098;2023-06-22T03:25:07;12.68;;;9.82;;
48215;SDS011;34005;48.844;10.098;2023-06-22T03:27:39;13.77;;;11.38;;
48215;SDS011;34005;48.844;10.098;2023-06-22T03:30:09;16.23;;;11.18;;
48215;SDS011;34005;48.844;10.098;2023-06-22T03:32:39;14.07;;;11.80;;
48215;SDS011;34005;48.844;10.098;2023-06-22T03:35:07;12.82;;;9.73;;
48215;SDS011;34005;48.844;10.098;2023-06-22T03:37:35;14.90;;;11.00;;
48215;SDS011;34005;48.844;10.098;2023-06-22T03:40:03;11.80;;;10.00;;
48215;SDS011;34005;48.844;10.098;2023-06-22T03:42:33;15.52;;;10.93;;
48215;SDS011;34005;48.844;10.098;2023-06-22T03:45:01;13.55;;;10.05;;
48215;SDS011;34005;48.844;10.098;2023-06-22T03:47:32;15.48;;;10.65;;
48215;SDS011;34005;48.844;10.098;2023-06-22T03:50:00;12.85;;;9.18;;
48215;SDS011;34005;48.844;10.098;2023-06-22T03:52:29;14.80;;;10.02;;
48215;SDS011;34005;48.844;10.098;2023-06-22T03:54:57;13.60;;;10.50;;
48215;SDS011;34005;48.844;10.098;2023-06-22T03:57:25;11.57;;;8.80;;
48215;SDS011;34005;48.844;10.098;2023-06-22T03:59:54;9.10;;;7.90;;
48215;SDS011;34005;48.844;10.098;2023-06-22T04:02:23;13.35;;;8.77;;
48215;SDS011;34005;48.844;10.098;2023-06-22T04:04:52;9.63;;;8.63;;
48215;SDS011;34005;48.844;10.098;2023-06-22T04:07:20;13.00;;;8.32;;
48215;SDS011;34005;48.844;10.098;2023-06-22T04:09:48;16.05;;;9.23;;
48215;SDS011;34005;48.844;10.098;2023-06-22T04:12:15;11.52;;;7.80;;
48215;SDS011;34005;48.844;10.098;2023-06-22T04:14:43;10.13;;;7.80;;
48215;SDS011;34005;48.844;10.098;2023-06-22T04:17:11;12.02;;;8.43;;
48215;SDS011;34005;48.844;10.098;2023-06-22T04:19:40;11.07;;;7.32;;
48215;SDS011;34005;48.844;10.098;2023-06-22T04:22:09;9.27;;;8.07;;
48215;SDS011;34005;48.844;10.098;2023-06-22T04:24:37;12.75;;;8.63;;
48215;SDS011;34005;48.844;10.098;2023-06-22T04:27:05;10.05;;;9.05;;
48215;SDS011;34005;48.844;10.098;2023-06-22T04:29:33;12.07;;;9.52;;
48215;SDS011;34005;48.844;10.098;2023-06-22T04:32:00;14.68;;;10.27;;
48215;SDS011;34005;48.844;10.098;2023-06-22T04:34:31;13.35;;;8.95;;
48215;SDS011;34005;48.844;10.098;2023-06-22T04:36:59;15.07;;;9.60;;
48215;SDS011;34005;48.844;10.098;2023-06-22T04:39:27;11.90;;;9.52;;
48215;SDS011;34005;48.844;10.098;2023-06-22T04:41:55;13.13;;;8.45;;
48215;SDS011;34005;48.844;10.098;2023-06-22T04:44:26;8.43;;;6.82;;
48215;SDS011;34005;48.844;10.098;2023-06-22T04:46:56;11.75;;;8.05;;
48215;SDS011;34005;48.844;10.098;2023-06-22T04:49:27;14.45;;;7.30;;
48215;SDS011;34005;48.844;10.098;2023-06-22T04:51:59;8.00;;;6.95;;
48215;SDS011;34005;48.844;10.098;2023-06-22T04:54:28;8.32;;;7.00;;
48215;SDS011;34005;48.844;10.098;2023-06-22T04:56:59;10.77;;;7.65;;
48215;SDS011;34005;48.844;10.098;2023-06-22T04:59:27;11.10;;;8.13;;
48215;SDS011;34005;48.844;10.098;2023-06-22T05:01:56;9.20;;;8.10;;
48215;SDS011;34005;48.844;10.098;2023-06-22T05:04:25;10.18;;;7.55;;
48215;SDS011;34005;48.844;10.098;2023-06-22T05:06:58;14.77;;;8.10;;
48215;SDS011;34005;48.844;10.098;2023-06-22T05:09:29;10.00;;;6.32;;
48215;SDS011;34005;48.844;10.098;2023-06-22T05:11:57;10.07;;;7.05;;
48215;SDS011;34005;48.844;10.098;2023-06-22T05:14:26;10.18;;;7.28;;
48215;SDS011;34005;48.844;10.098;2023-06-22T05:16:54;13.07;;;8.75;;
48215;SDS011;34005;48.844;10.098;2023-06-22T05:23:22;8.27;;;6.95;;
48215;SDS011;34005;48.844;10.098;2023-06-22T05:38:17;8.75;;;5.90;;
48215;SDS011;34005;48.844;10.098;2023-06-22T05:40:45;8.15;;;4.88;;
48215;SDS011;34005;48.844;10.098;2023-06-22T05:43:13;8.48;;;5.38;;
48215;SDS011;34005;48.844;10.098;2023-06-22T05:45:41;8.52;;;5.68;;
48215;SDS011;34005;48.844;10.098;2023-06-22T05:48:09;8.05;;;5.22;;
48215;SDS011;34005;48.844;10.098;2023-06-22T05:50:37;5.70;;;4.63;;
48215;SDS011;34005;48.844;10.098;2023-06-22T05:53:05;6.55;;;4.72;;
48215;SDS011;34005;48.844;10.098;2023-06-22T05:55:34;9.35;;;4.90;;
48215;SDS011;34005;48.844;10.098;2023-06-22T05:58:02;7.50;;;5.22;;
48215;SDS011;34005;48.844;10.098;2023-06-22T06:00:30;7.28;;;5.25;;
48215;SDS011;34005;48.844;10.098;2023-06-22T06:02:59;8.73;;;5.43;;
48215;SDS011;34005;48.844;10.098;2023-06-22T06:05:30;7.07;;;5.43;;
48215;SDS011;34005;48.844;10.098;2023-06-22T06:07:58;7.28;;;5.55;;
48215;SDS011;34005;48.844;10.098;2023-06-22T06:10:26;5.43;;;4.68;;
48215;SDS011;34005;48.844;10.098;2023-06-22T06:12:57;8.70;;;4.47;;
48215;SDS011;34005;48.844;10.098;2023-06-22T06:15:27;8.90;;;4.60;;
48215;SDS011;34005;48.844;10.098;2023-06-22T06:17:55;5.65;;;3.70;;
48215;SDS011;34005;48.844;10.098;2023-06-22T06:20:24;7.43;;;4.63;;
48215;SDS011;34005;48.844;10.098;2023-06-22T06:25:23;6.10;;;3.97;;
48215;SDS011;34005;48.844;10.098;2023-06-22T06:27:52;6.38;;;3.85;;
48215;SDS011;34005;48.844;10.098;2023-06-22T06:30:22;4.97;;;3.63;;
48215;SDS011;34005;48.844;10.098;2023-06-22T06:32:50;5.63;;;3.83;;
48215;SDS011;34005;48.844;10.098;2023-06-22T06:35:18;4.63;;;3.70;;
48215;SDS011;34005;48.844;10.098;2023-06-22T06:37:47;5.75;;;3.95;;
48215;SDS011;34005;48.844;10.098;2023-06-22T06:40:16;4.28;;;3.63;;
48215;SDS011;34005;48.844;10.098;2023-06-22T06:42:45;4.65;;;3.72;;
48215;SDS011;34005;48.844;10.098;2023-06-22T06:45:15;7.47;;;4.22;;
48215;SDS011;34005;48.844;10.098;2023-06-22T06:47:45;6.63;;;3.30;;
48215;SDS011;34005;48.844;10.098;2023-06-22T06:50:13;5.38;;;3.53;;
48215;SDS011;34005;48.844;10.098;2023-06-22T06:52:41;8.10;;;3.88;;
48215;SDS011;34005;48.844;10.098;2023-06-22T06:55:09;6.00;;;3.90;;
48215;SDS011;34005;48.844;10.098;2023-06-22T06:57:38;6.90;;;3.42;;
48215;SDS011;34005;48.844;10.098;2023-06-22T07:00:07;5.53;;;3.53;;
48215;SDS011;34005;48.844;10.098;2023-06-22T07:02:38;10.70;;;3.58;;
48215;SDS011;34005;48.844;10.098;2023-06-22T07:05:09;3.70;;;2.97;;
48215;SDS011;34005;48.844;10.098;2023-06-22T07:07:38;6.75;;;3.53;;
48215;SDS011;34005;48.844;10.098;2023-06-22T07:10:06;5.47;;;3.22;;
48215;SDS011;34005;48.844;10.098;2023-06-22T07:12:34;9.30;;;3.92;;
48215;SDS011;34005;48.844;10.098;2023-06-22T07:15:02;4.95;;;3.35;;
48215;SDS011;34005;48.844;10.098;2023-06-22T07:17:31;4.65;;;3.45;;
48215;SDS011;34005;48.844;10.098;2023-06-22T07:19:59;7.50;;;3.42;;
48215;SDS011;34005;48.844;10.098;2023-06-22T07:22:28;6.13;;;3.35;;
48215;SDS011;34005;48.844;10.098;2023-06-22T07:24:56;5.80;;;3.28;;
48215;SDS011;34005;48.844;10.098;2023-06-22T07:27:24;5.15;;;2.50;;
48215;SDS011;34005;48.844;10.098;2023-06-22T07:29:52;9.15;;;6.05;;
48215;SDS011;34005;48.844;10.098;2023-06-22T07:32:21;10.25;;;5.55;;
48215;SDS011;34005;48.844;10.098;2023-06-22T07:34:49;7.38;;;3.50;;
48215;SDS011;34005;48.844;10.098;2023-06-22T07:37:16;5.05;;;2.97;;
48215;SDS011;34005;48.844;10.098;2023-06-22T07:39:45;8.52;;;3.95;;
48215;SDS011;34005;48.844;10.098;2023-06-22T07:42:13;6.25;;;3.78;;
48215;SDS011;34005;48.844;10.098;2023-06-22T07:44:45;4.90;;;3.30;;
48215;SDS011;34005;48.844;10.098;2023-06-22T07:47:12;7.53;;;3.30;;
48215;SDS011;34005;48.844;10.098;2023-06-22T07:49:40;7.07;;;2.90;;
48215;SDS011;34005;48.844;10.098;2023-06-22T07:52:08;7.70;;;3.20;;
48215;SDS011;34005;48.844;10.098;2023-06-22T07:54:35;6.05;;;2.83;;
48215;SDS011;34005;48.844;10.098;2023-06-22T07:57:05;7.43;;;3.03;;
48215;SDS011;34005;48.844;10.098;2023-06-22T07:59:32;18.75;;;14.20;;
48215;SDS011;34005;48.844;10.098;2023-06-22T08:02:00;10.65;;;4.60;;
48215;SDS011;34005;48.844;10.098;2023-06-22T08:04:29;7.80;;;3.80;;
48215;SDS011;34005;48.844;10.098;2023-06-22T08:07:00;6.30;;;3.28;;
48215;SDS011;34005;48.844;10.098;2023-06-22T08:09:28;10.30;;;3.58;;
48215;SDS011;34005;48.844;10.098;2023-06-22T08:11:57;4.53;;;3.30;;
48215;SDS011;34005;48.844;10.098;2023-06-22T08:14:26;7.97;;;4.07;;
48215;SDS011;34005;48.844;10.098;2023-06-22T08:16:54;18.85;;;12.30;;
48215;SDS011;34005;48.844;10.098;2023-06-22T08:19:22;11.70;;;7.38;;
48215;SDS011;34005;48.844;10.098;2023-06-22T08:21:50;10.50;;;4.60;;
48215;SDS011;34005;48.844;10.098;2023-06-22T08:24:17;10.27;;;4.22;;
48215;SDS011;34005;48.844;10.098;2023-06-22T08:26:45;10.13;;;3.67;;
48215;SDS011;34005;48.844;10.098;2023-06-22T08:29:13;6.20;;;3.65;;
48215;SDS011;34005;48.844;10.098;2023-06-22T08:31:42;9.82;;;4.53;;
48215;SDS011;34005;48.844;10.098;2023-06-22T08:34:09;8.70;;;3.50;;
48215;SDS011;34005;48.844;10.098;2023-06-22T08:36:37;8.80;;;4.30;;
48215;SDS011;34005;48.844;10.098;2023-06-22T08:39:11;8.98;;;3.90;;
48215;SDS011;34005;48.844;10.098;2023-06-22T08:41:38;8.07;;;3.97;;
48215;SDS011;34005;48.844;10.098;2023-06-22T08:44:06;9.48;;;4.07;;
48215;SDS011;34005;48.844;10.098;2023-06-22T08:46:33;8.40;;;4.10;;
48215;SDS011;34005;48.844;10.098;2023-06-22T08:49:02;7.32;;;3.85;;
48215;SDS011;34005;48.844;10.098;2023-06-22T08:51:30;11.75;;;4.68;;
48215;SDS011;34005;48.844;10.098;2023-06-22T08:53:58;7.38;;;3.95;;
48215;SDS011;34005;48.844;10.098;2023-06-22T08:56:25;9.50;;;4.55;;
48215;SDS011;34005;48.844;10.098;2023-06-22T08:58:53;13.57;;;5.70;;
48215;SDS011;34005;48.844;10.098;2023-06-22T09:01:23;9.00;;;5.55;;
48215;SDS011;34005;48.844;10.098;2023-06-22T09:03:50;12.55;;;5.20;;
48215;SDS011;34005;48.844;10.098;2023-06-22T09:06:25;10.18;;;4.40;;
48215;SDS011;34005;48.844;10.098;2023-06-22T09:08:53;10.48;;;4.35;;
48215;SDS011;34005;48.844;10.098;2023-06-22T09:11:20;9.82;;;4.22;;
48215;SDS011;34005;48.844;10.098;2023-06-22T09:13:48;7.38;;;4.57;;
48215;SDS011;34005;48.844;10.098;2023-06-22T09:16:15;10.43;;;4.55;;
48215;SDS011;34005;48.844;10.098;2023-06-22T09:18:45;13.20;;;4.85;;
48215;SDS011;34005;48.844;10.098;2023-06-22T09:21:14;10.05;;;4.82;;
48215;SDS011;34005;48.844;10.098;2023-06-22T09:23:43;10.98;;;4.57;;
48215;SDS011;34005;48.844;10.098;2023-06-22T09:26:12;6.77;;;4.47;;
48215;SDS011;34005;48.844;10.098;2023-06-22T09:28:40;12.30;;;5.35;;
48215;SDS011;34005;48.844;10.098;2023-06-22T09:31:08;10.77;;;5.15;;
48215;SDS011;34005;48.844;10.098;2023-06-22T09:33:35;7.32;;;4.10;;
48215;SDS011;34005;48.844;10.098;2023-06-22T09:36:04;7.38;;;4.10;;
48215;SDS011;34005;48.844;10.098;2023-06-22T09:38:34;13.10;;;5.13;;
48215;SDS011;34005;48.844;10.098;2023-06-22T09:41:03;11.35;;;5.05;;
48215;SDS011;34005;48.844;10.098;2023-06-22T09:43:31;9.93;;;4.75;;
48215;SDS011;34005;48.844;10.098;2023-06-22T09:46:01;13.20;;;4.85;;
48215;SDS011;34005;48.844;10.098;2023-06-22T09:48:29;11.20;;;4.55;;
48215;SDS011;34005;48.844;10.098;2023-06-22T09:50:56;9.65;;;4.40;;
48215;SDS011;34005;48.844;10.098;2023-06-22T09:53:24;10.07;;;4.72;;
48215;SDS011;34005;48.844;10.098;2023-06-22T09:55:52;14.05;;;6.03;;
48215;SDS011;34005;48.844;10.098;2023-06-22T09:58:20;9.68;;;4.70;;
48215;SDS011;34005;48.844;10.098;2023-06-22T10:00:48;9.07;;;5.28;;
48215;SDS011;34005;48.844;10.098;2023-06-22T10:03:16;11.73;;;5.38;;
48215;SDS011;34005;48.844;10.098;2023-06-22T10:05:43;12.57;;;4.85;;
48215;SDS011;34005;48.844;10.098;2023-06-22T10:08:12;13.05;;;3.88;;
48215;SDS011;34005;48.844;10.098;2023-06-22T10:10:40;8.73;;;4.55;;
48215;SDS011;34005;48.844;10.098;2023-06-22T10:13:08;12.60;;;5.57;;
48215;SDS011;34005;48.844;10.098;2023-06-22T10:15:38;8.95;;;4.72;;
48215;SDS011;34005;48.844;10.098;2023-06-22T10:18:06;9.00;;;4.72;;
48215;SDS011;34005;48.844;10.098;2023-06-22T10:20:34;9.13;;;5.35;;
48215;SDS011;34005;48.844;10.098;2023-06-22T10:23:02;11.85;;;5.70;;
48215;SDS011;34005;48.844;10.098;2023-06-22T10:25:29;8.82;;;4.55;;
48215;SDS011;34005;48.844;10.098;2023-06-22T10:27:57;14.40;;;5.70;;
48215;SDS011;34005;48.844;10.098;2023-06-22T10:30:25;13.70;;;5.40;;
48215;SDS011;34005;48.844;10.098;2023-06-22T10:32:54;10.05;;;5.15;;
48215;SDS011;34005;48.844;10.098;2023-06-22T10:35:22;11.82;;;5.18;;
48215;SDS011;34005;48.844;10.098;2023-06-22T10:37:49;11.43;;;4.82;;
48215;SDS011;34005;48.844;10.098;2023-06-22T10:40:17;11.88;;;4.97;;
48215;SDS011;34005;48.844;10.098;2023-06-22T10:42:45;11.05;;;5.50;;
48215;SDS011;34005;48.844;10.098;2023-06-22T10:45:12;9.63;;;5.30;;
48215;SDS011;34005;48.844;10.098;2023-06-22T10:47:40;14.07;;;5.63;;
48215;SDS011;34005;48.844;10.098;2023-06-22T10:50:10;13.63;;;5.22;;
48215;SDS011;34005;48.844;10.098;2023-06-22T10:52:38;9.52;;;5.07;;
48215;SDS011;34005;48.844;10.098;2023-06-22T10:55:06;13.55;;;5.65;;
48215;SDS011;34005;48.844;10.098;2023-06-22T11:00:30;10.73;;;4.72;;
48215;SDS011;34005;48.844;10.098;2023-06-22T11:27:06;13.52;;;5.70;;
48215;SDS011;34005;48.844;10.098;2023-06-22T11:29:40;9.82;;;5.10;;
48215;SDS011;34005;48.844;10.098;2023-06-22T11:32:08;16.20;;;5.82;;
48215;SDS011;34005;48.844;10.098;2023-06-22T11:34:40;14.73;;;5.85;;
48215;SDS011;34005;48.844;10.098;2023-06-22T11:37:07;11.93;;;5.70;;
48215;SDS011;34005;48.844;10.098;2023-06-22T11:39:36;14.20;;;5.38;;
48215;SDS011;34005;48.844;10.098;2023-06-22T11:42:11;15.27;;;5.53;;
48215;SDS011;34005;48.844;10.098;2023-06-22T11:44:38;14.73;;;4.63;;
48215;SDS011;34005;48.844;10.098;2023-06-22T11:47:06;15.77;;;5.38;;
48215;SDS011;34005;48.844;10.098;2023-06-22T11:49:34;15.18;;;5.10;;
48215;SDS011;34005;48.844;10.098;2023-06-22T11:52:02;13.73;;;5.85;;
48215;SDS011;34005;48.844;10.098;2023-06-22T11:54:31;12.15;;;5.35;;
48215;SDS011;34005;48.844;10.098;2023-06-22T11:57:00;13.93;;;5.57;;
48215;SDS011;34005;48.844;10.098;2023-06-22T11:59:29;8.13;;;5.00;;
48215;SDS011;34005;48.844;10.098;2023-06-22T12:07:43;10.93;;;5.38;;
48215;SDS011;34005;48.844;10.098;2023-06-22T12:23:24;13.63;;;5.30;;
48215;SDS011;34005;48.844;10.098;2023-06-22T12:26:04;9.63;;;5.40;;
48215;SDS011;34005;48.844;10.098;2023-06-22T12:29:22;12.48;;;5.50;;
48215;SDS011;34005;48.844;10.098;2023-06-22T15:34:04;8.02;;;3.67;;
48215;SDS011;34005;48.844;10.098;2023-06-22T15:36:32;9.05;;;4.20;;
48215;SDS011;34005;48.844;10.098;2023-06-22T15:39:01;10.50;;;4.72;;
48215;SDS011;34005;48.844;10.098;2023-06-22T15:41:29;10.60;;;4.07;;
48215;SDS011;34005;48.844;10.098;2023-06-22T15:43:56;12.85;;;4.55;;
48215;SDS011;34005;48.844;10.098;2023-06-22T15:46:24;12.45;;;4.30;;
48215;SDS011;34005;48.844;10.098;2023-06-22T15:48:51;13.45;;;3.83;;
48215;SDS011;34005;48.844;10.098;2023-06-22T15:51:23;10.68;;;4.57;;
48215;SDS011;34005;48.844;10.098;2023-06-22T15:53:50;12.30;;;3.97;;
48215;SDS011;34005;48.844;10.098;2023-06-22T15:56:18;12.38;;;4.00;;
48215;SDS011;34005;48.844;10.098;2023-06-22T15:58:46;15.00;;;4.43;;
48215;SDS011;34005;48.844;10.098;2023-06-22T16:01:14;11.57;;;4.63;;
48215;SDS011;34005;48.844;10.098;2023-06-22T16:03:42;7.95;;;3.63;;
48215;SDS011;34005;48.844;10.098;2023-06-22T16:06:09;11.73;;;4.30;;
48215;SDS011;34005;48.844;10.098;2023-06-22T16:08:38;13.45;;;4.60;;
48215;SDS011;34005;48.844;10.098;2023-06-22T16:11:06;12.55;;;4.30;;
48215;SDS011;34005;48.844;10.098;2023-06-22T16:13:34;8.70;;;3.95;;
48215;SDS011;34005;48.844;10.098;2023-06-22T16:16:02;15.43;;;5.13;;
48215;SDS011;34005;48.844;10.098;2023-06-22T16:18:29;10.25;;;4.60;;
48215;SDS011;34005;48.844;10.098;2023-06-22T16:20:57;13.52;;;4.97;;
48215;SDS011;34005;48.844;10.098;2023-06-22T16:23:24;13.35;;;3.67;;
48215;SDS011;34005;48.844;10.098;2023-06-22T16:25:53;15.63;;;4.72;;
48215;SDS011;34005;48.844;10.098;2023-06-22T16:28:21;14.80;;;4.60;;
48215;SDS011;34005;48.844;10.098;2023-06-22T16:30:48;11.32;;;4.03;;
48215;SDS011;34005;48.844;10.098;2023-06-22T16:33:18;13.32;;;4.55;;
48215;SDS011;34005;48.844;10.098;2023-06-22T16:35:46;10.65;;;4.22;;
48215;SDS011;34005;48.844;10.098;2023-06-22T16:38:13;12.43;;;4.90;;
48215;SDS011;34005;48.844;10.098;2023-06-22T16:40:41;10.80;;;4.03;;
48215;SDS011;34005;48.844;10.098;2023-06-22T16:43:10;12.93;;;5.13;;
48215;SDS011;34005;48.844;10.098;2023-06-22T16:45:38;11.70;;;4.72;;
48215;SDS011;34005;48.844;10.098;2023-06-22T16:48:05;9.57;;;4.57;;
48215;SDS011;34005;48.844;10.098;2023-06-22T16:50:33;13.00;;;4.47;;
48215;SDS011;34005;48.844;10.098;2023-06-22T16:53:01;9.52;;;4.40;;
48215;SDS011;34005;48.844;10.098;2023-06-22T16:55:28;14.35;;;4.20;;
48215;SDS011;34005;48.844;10.098;2023-06-22T16:57:58;8.60;;;4.50;;
48215;SDS011;34005;48.844;10.098;2023-06-22T17:00:30;15.07;;;4.72;;
48215;SDS011;34005;48.844;10.098;2023-06-22T17:02:59;11.30;;;4.95;;
48215;SDS011;34005;48.844;10.098;2023-06-22T17:05:30;10.82;;;4.88;;
48215;SDS011;34005;48.844;10.098;2023-06-22T17:08:01;15.63;;;4.97;;
48215;SDS011;34005;48.844;10.098;2023-06-22T17:10:29;13.90;;;4.90;;
48215;SDS011;34005;48.844;10.098;2023-06-22T17:13:00;10.13;;;5.00;;
48215;SDS011;34005;48.844;10.098;2023-06-22T17:15:31;14.45;;;5.25;;
48215;SDS011;34005;48.844;10.098;2023-06-22T17:18:02;12.63;;;4.93;;
48215;SDS011;34005;48.844;10.098;2023-06-22T17:20:31;12.30;;;5.60;;
48215;SDS011;34005;48.844;10.098;2023-06-22T17:22:59;11.88;;;4.80;;
48215;SDS011;34005;48.844;10.098;2023-06-22T17:25:27;17.58;;;6.20;;
48215;SDS011;34005;48.844;10.098;2023-06-22T17:27:58;12.10;;;5.18;;
48215;SDS011;34005;48.844;10.098;2023-06-22T17:30:26;17.02;;;6.00;;
48215;SDS011;34005;48.844;10.098;2023-06-22T17:32:56;15.18;;;5.18;;
48215;SDS011;34005;48.844;10.098;2023-06-22T17:35:25;13.88;;;5.07;;
48215;SDS011;34005;48.844;10.098;2023-06-22T17:37:53;15.70;;;5.40;;
48215;SDS011;34005;48.844;10.098;2023-06-22T17:40:22;14.88;;;5.60;;
48215;SDS011;34005;48.844;10.098;2023-06-22T17:42:53;10.30;;;4.22;;
48215;SDS011;34005;48.844;10.098;2023-06-22T17:45:30;17.20;;;6.78;;
48215;SDS011;34005;48.844;10.098;2023-06-22T17:47:58;21.33;;;6.88;;
48215;SDS011;34005;48.844;10.098;2023-06-22T17:50:26;18.30;;;6.57;;
48215;SDS011;34005;48.844;10.098;2023-06-22T17:52:54;17.08;;;6.60;;
48215;SDS011;34005;48.844;10.098;2023-06-22T17:55:22;16.45;;;7.80;;
48215;SDS011;34005;48.844;10.098;2023-06-22T17:57:53;18.25;;;9.93;;
48215;SDS011;34005;48.844;10.098;2023-06-22T18:00:22;19.88;;;7.78;;
48215;SDS011;34005;48.844;10.098;2023-06-22T18:02:50;19.92;;;6.97;;
48215;SDS011;34005;48.844;10.098;2023-06-22T18:05:22;21.80;;;7.38;;
48215;SDS011;34005;48.844;10.098;2023-06-22T18:07:56;17.25;;;6.72;;
48215;SDS011;34005;48.844;10.098;2023-06-22T18:10:26;20.08;;;6.63;;
48215;SDS011;34005;48.844;10.098;2023-06-22T18:12:55;11.43;;;5.95;;
48215;SDS011;34005;48.844;10.098;2023-06-22T18:15:25;14.88;;;6.72;;
48215;SDS011;34005;48.844;10.098;2023-06-22T18:17:53;16.58;;;6.47;;
48215;SDS011;34005;48.844;10.098;2023-06-22T18:20:23;16.88;;;6.28;;
48215;SDS011;34005;48.844;10.098;2023-06-22T18:22:51;12.35;;;5.85;;
48215;SDS011;34005;48.844;10.098;2023-06-22T18:25:20;13.77;;;5.63;;
48215;SDS011;34005;48.844;10.098;2023-06-22T18:27:49;12.40;;;5.70;;
48215;SDS011;34005;48.844;10.098;2023-06-22T18:30:19;19.05;;;6.10;;
48215;SDS011;34005;48.844;10.098;2023-06-22T18:32:47;12.10;;;5.25;;
48215;SDS011;34005;48.844;10.098;2023-06-22T18:35:16;12.60;;;5.40;;
48215;SDS011;34005;48.844;10.098;2023-06-22T18:37:45;16.83;;;5.60;;
48215;SDS011;34005;48.844;10.098;2023-06-22T18:40:15;17.30;;;6.10;;
48215;SDS011;34005;48.844;10.098;2023-06-22T18:42:44;12.02;;;5.90;;
48215;SDS011;34005;48.844;10.098;2023-06-22T18:45:22;12.50;;;5.88;;